Time;durP1;ratioP1;P1;durP2;ratioP2;P2;SDS_P1;SDS_P2;PMS_P1;PMS_P2;Temp;Humidity;BMP_temperature;BMP_pressure;BME280_temperature;BME280_humidity;BME280_pressure;Samples;Min_cycle;Max_cycle;Signal;HPM_P1;HPM_P2
2022/05/03 00:00:05;;;;;;;11.10;7.80;;;11.30;99.90;;;10.96;100.00;97025.25;5005218;28;20025;-45
2022/05/03 00:02:47;;;;;;;9.85;7.68;;;11.40;99.90;;;10.95;100.00;97027.97;5005930;28;20051;-49
2022/05/03 00:05:39;;;;;;;9.18;7.15;;;11.30;99.90;;;10.93;100.00;97020.13;5005397;28;20037;-48
2022/05/03 00:08:14;;;;;;;9.47;7.30;;;11.30;99.90;;;10.93;100.00;97012.22;5004375;28;20044;-48
2022/05/03 00:11:09;;;;;;;8.98;7.22;;;11.30;99.90;;;10.91;100.00;97013.19;4984129;28;20041;-49
2022/05/03 00:14:11;;;;;;;10.57;7.60;;;11.30;99.90;;;10.88;100.00;97014.19;5003692;28;20501;-48
2022/05/03 00:16:38;;;;;;;8.52;6.78;;;11.30;99.90;;;10.86;100.00;97016.03;4990256;28;20037;-48
2022/05/03 00:19:09;;;;;;;9.65;6.93;;;11.20;99.90;;;10.83;100.00;97014.38;5007189;28;20144;-49
2022/05/03 00:21:36;;;;;;;8.30;6.75;;;11.20;99.90;;;10.83;100.00;97014.38;5006007;28;20033;-49
2022/05/03 00:24:04;;;;;;;7.07;6.38;;;11.20;99.90;;;10.82;100.00;97012.69;4992541;28;20037;-47
2022/05/03 00:26:31;;;;;;;8.63;6.75;;;11.20;99.90;;;10.82;100.00;97010.03;5005056;28;20517;-49
2022/05/03 00:28:58;;;;;;;8.95;6.63;;;11.20;99.90;;;10.61;100.00;96982.81;5009076;28;20037;-49
2022/05/03 00:31:26;;;;;;;8.80;6.18;;;11.20;99.90;;;10.69;100.00;97000.94;5006126;28;20041;-49
2022/05/03 00:33:54;;;;;;;7.35;6.25;;;11.20;99.90;;;10.69;100.00;97011.50;5006072;28;20083;-49
2022/05/03 00:36:20;;;;;;;6.47;5.82;;;11.10;99.90;;;10.61;100.00;97005.72;5010211;28;20047;-47
2022/05/03 00:38:46;;;;;;;7.63;6.03;;;11.00;99.90;;;10.53;100.00;97003.38;5010533;28;20390;-48
2022/05/03 00:41:18;;;;;;;7.32;6.18;;;11.00;99.90;;;10.48;100.00;97008.88;5010375;28;20025;-47
2022/05/03 00:43:53;;;;;;;;;;;10.90;99.90;;;10.43;100.00;97007.34;5012101;28;20659;-49
2022/05/03 00:46:27;;;;;;;6.78;5.88;;;10.80;99.90;;;10.38;100.00;97006.69;5005260;28;20278;-47
2022/05/03 00:49:22;;;;;;;8.02;6.63;;;10.80;99.90;;;10.31;100.00;97012.19;5004857;28;20466;-48
2022/05/03 00:52:03;;;;;;;9.32;7.18;;;10.70;99.90;;;10.22;100.00;97009.94;5004481;28;20083;-45
2022/05/03 00:55:15;;;;;;;7.95;6.20;;;10.60;99.90;;;10.10;100.00;97003.41;5003697;28;20026;-47
2022/05/03 00:57:56;;;;;;;7.93;6.97;;;10.50;99.90;;;10.02;100.00;97012.53;5004707;28;20041;-48
2022/05/03 01:00:25;;;;;;;7.65;6.68;;;10.40;99.90;;;9.92;100.00;97009.41;4994439;28;20133;-49
2022/05/03 01:03:05;;;;;;;12.55;7.68;;;10.40;99.90;;;9.84;100.00;97011.50;5006897;28;20032;-45
2022/05/03 01:06:15;;;;;;;9.30;7.68;;;10.30;99.90;;;9.77;100.00;97008.25;5010907;28;20069;-48
2022/05/03 01:12:07;;;;;;;13.27;8.85;;;10.10;99.90;;;9.65;100.00;97009.59;5019470;28;20099;-58
2022/05/03 01:15:05;;;;;;;13.30;8.85;;;10.00;99.90;;;9.60;100.00;97013.31;5029184;28;20493;-57
2022/05/03 01:17:51;;;;;;;9.27;8.15;;;10.00;99.90;;;9.54;100.00;97006.53;5028328;28;20028;-58
2022/05/03 01:20:40;;;;;;;11.18;8.45;;;9.90;99.90;;;9.48;100.00;97009.41;5016509;28;20715;-58
2022/05/03 01:23:51;;;;;;;12.02;8.50;;;9.90;99.90;;;9.42;100.00;97007.88;5012868;28;20067;-58
2022/05/03 01:26:55;;;;;;;10.95;8.45;;;9.80;99.90;;;9.38;100.00;97001.00;5008817;28;20686;-58
2022/05/03 01:29:36;;;;;;;11.65;8.65;;;9.80;99.90;;;9.31;100.00;97003.03;5013278;28;20060;-58
2022/05/03 01:32:08;;;;;;;10.23;8.40;;;9.70;99.90;;;9.27;100.00;97001.41;5011993;28;20025;-58
2022/05/03 01:34:36;;;;;;;9.85;7.82;;;9.70;99.90;;;9.24;100.00;97004.19;5011561;28;20041;-58
2022/05/03 01:37:43;;;;;;;9.63;8.00;;;9.70;99.90;;;9.22;100.00;97003.34;5012548;28;20037;-58
2022/05/03 01:40:34;;;;;;;13.00;8.48;;;9.60;99.90;;;9.18;100.00;96997.34;5013119;28;20025;-58
2022/05/03 01:43:25;;;;;;;11.25;8.55;;;9.60;99.90;;;9.14;100.00;97003.66;5015214;28;20109;-59
2022/05/03 01:46:13;;;;;;;12.73;8.38;;;9.50;99.90;;;9.11;100.00;97002.91;5019553;28;20547;-58
2022/05/03 01:52:20;;;;;;;12.48;8.93;;;9.50;99.90;;;9.02;100.00;96995.38;5011021;28;20052;-58
2022/05/03 01:55:33;;;;;;;9.75;8.75;;;9.40;99.90;;;8.96;100.00;96989.41;5010029;28;20155;-58
2022/05/03 01:58:09;;;;;;;;;;;9.40;99.90;;;8.93;100.00;96991.28;4971916;28;20045;-58
2022/05/03 02:00:36;;;;;;;10.88;9.05;;;9.40;99.90;;;8.89;100.00;96993.19;4967331;28;20124;-58
2022/05/03 02:03:31;;;;;;;11.38;8.70;;;9.30;99.90;;;8.86;100.00;96989.81;4990264;28;20425;-58
2022/05/03 02:06:12;;;;;;;11.40;9.02;;;9.30;99.90;;;8.83;100.00;96984.66;5007066;28;20088;-58
2022/05/03 02:08:57;;;;;;;10.65;9.55;;;9.20;99.90;;;8.77;100.00;96997.13;5008849;28;20059;-57
2022/05/03 02:12:05;;;;;;;12.43;9.35;;;9.20;99.90;;;8.73;100.00;96994.66;4988378;28;20032;-57
2022/05/03 02:14:51;;;;;;;14.13;11.30;;;9.20;99.90;;;8.70;100.00;96992.97;4993171;28;20057;-57
2022/05/03 02:17:43;;;;;;;14.75;10.55;;;9.10;99.90;;;8.69;100.00;96998.31;5017102;28;20033;-57
2022/05/03 02:20:28;;;;;;;12.15;10.70;;;9.10;99.90;;;8.67;100.00;97002.75;5011881;28;20030;-57
2022/05/03 02:23:07;;;;;;;11.52;10.05;;;9.10;99.90;;;8.60;100.00;97000.34;5015682;28;20201;-57
2022/05/03 02:25:52;;;;;;;13.48;9.85;;;9.00;99.90;;;8.57;100.00;96997.81;4993490;28;20052;-57
2022/05/03 02:28:48;;;;;;;13.55;9.32;;;9.00;99.90;;;8.54;100.00;96997.06;5013158;28;20504;-56
2022/05/03 02:31:19;;;;;;;12.32;10.48;;;9.00;99.90;;;8.50;100.00;96993.69;5012783;28;20111;-56
2022/05/03 02:34:25;;;;;;;14.90;10.48;;;8.90;99.90;;;8.44;100.00;96991.28;5014315;28;20493;-58
2022/05/03 02:37:03;;;;;;;12.82;11.05;;;8.90;99.90;;;8.43;100.00;96992.19;4996335;28;20113;-56
2022/05/03 02:39:31;;;;;;;14.15;11.18;;;8.90;99.90;;;8.38;100.00;96999.34;4993071;28;20909;-56
2022/05/03 02:42:00;;;;;;;13.75;9.93;;;8.80;99.90;;;8.35;100.00;97002.94;5014333;28;20021;-56
2022/05/03 02:44:31;;;;;;;13.00;10.43;;;8.80;99.90;;;8.31;100.00;97000.47;5013983;28;20033;-56
2022/05/03 02:47:03;;;;;;;14.98;10.32;;;8.80;99.90;;;8.26;100.00;96995.38;5015637;28;20061;-56
2022/05/03 02:49:47;;;;;;;13.73;10.70;;;8.70;99.90;;;8.22;100.00;96996.41;5007483;28;20033;-57
2022/05/03 02:52:40;;;;;;;12.60;11.07;;;8.70;99.90;;;8.17;100.00;96990.44;5015122;28;20404;-56
2022/05/03 02:55:50;;;;;;;14.70;11.77;;;8.60;99.90;;;8.15;100.00;96989.66;5013873;28;20022;-57
2022/05/03 02:58:40;;;;;;;15.88;13.23;;;8.60;99.90;;;8.12;100.00;96987.97;5016658;28;20073;-56
2022/05/03 03:01:52;;;;;;;18.08;12.93;;;8.60;99.90;;;8.11;100.00;96988.00;5014469;28;20137;-56
2022/05/03 03:04:46;;;;;;;17.38;12.70;;;8.60;99.90;;;8.11;100.00;96985.38;5015432;28;20029;-56
2022/05/03 03:07:18;;;;;;;16.17;13.55;;;8.60;99.90;;;8.11;100.00;96982.75;5015771;28;20508;-56
2022/05/03 03:09:47;;;;;;;;;;;8.50;99.90;;;8.08;100.00;96983.72;5011626;28;20065;-57
2022/05/03 03:12:40;;;;;;;17.88;13.50;;;8.60;99.90;;;8.10;100.00;96984.53;4997308;28;19939;-56
2022/05/03 03:15:15;;;;;;;18.98;14.88;;;8.60;99.90;;;8.12;100.00;96981.84;5015830;28;20049;-57
2022/05/03 03:17:44;;;;;;;16.30;14.40;;;8.60;99.90;;;8.09;100.00;96977.53;5015322;28;20044;-56
2022/05/03 03:20:12;;;;;;;17.63;14.40;;;8.60;99.90;;;8.13;100.00;96973.06;5016303;28;20477;-56
2022/05/03 03:22:38;;;;;;;17.92;14.75;;;8.60;99.90;;;8.15;100.00;96973.88;5017419;28;20037;-59
2022/05/03 03:25:06;;;;;;;17.27;14.02;;;8.60;99.90;;;8.12;100.00;96977.44;5016553;28;20216;-56
2022/05/03 03:27:33;;;;;;;16.58;14.30;;;8.60;99.90;;;8.11;100.00;96983.63;5012942;28;20710;-56
2022/05/03 03:30:04;;;;;;;18.63;14.63;;;8.60;99.90;;;8.10;100.00;96981.91;5017427;28;20083;-56
2022/05/03 03:32:31;;;;;;;19.27;16.70;;;8.50;99.90;;;8.09;100.00;96987.22;5010646;28;20075;-57
2022/05/03 03:35:00;;;;;;;18.50;15.35;;;8.60;99.90;;;8.08;100.00;96985.50;5019355;28;20117;-57
2022/05/03 03:37:30;;;;;;;19.23;15.82;;;8.60;99.90;;;8.08;100.00;96990.75;5016674;28;20696;-56
2022/05/03 03:39:56;;;;;;;16.50;14.38;;;8.60;99.90;;;8.09;100.00;96988.06;5017345;28;20082;-56
2022/05/03 03:42:22;;;;;;;17.83;14.70;;;8.60;99.90;;;8.10;100.00;96986.31;5015602;28;20431;-56
2022/05/03 03:44:48;;;;;;;16.58;13.20;;;8.60;99.90;;;8.13;100.00;96994.06;5010150;28;20021;-57
2022/05/03 03:47:15;;;;;;;14.25;12.52;;;8.60;99.90;;;8.13;100.00;96991.44;5014423;28;20029;-56
2022/05/03 03:49:41;;;;;;;18.70;12.45;;;8.70;99.90;;;8.09;100.00;96997.72;5014277;28;20072;-57
2022/05/03 03:52:11;;;;;;;19.48;12.68;;;8.60;99.90;;;8.10;100.00;96988.94;4994632;28;20108;-59
2022/05/03 03:54:40;;;;;;;14.00;12.50;;;8.60;99.90;;;8.08;100.00;96988.97;5011092;28;20328;-59
2022/05/03 03:57:07;;;;;;;15.00;12.10;;;8.60;99.90;;;8.08;100.00;96993.38;5017594;28;20401;-59
2022/05/03 03:59:33;;;;;;;14.45;11.95;;;8.60;99.90;;;8.06;100.00;96998.69;5008860;28;20590;-56
2022/05/03 04:02:00;;;;;;;12.98;11.57;;;8.50;99.90;;;8.01;100.00;96995.34;5007941;28;20041;-56
2022/05/03 04:04:34;;;;;;;14.10;12.52;;;8.50;99.90;;;7.99;100.00;96990.13;5014138;28;20037;-56
2022/05/03 04:07:00;;;;;;;15.85;12.63;;;8.50;99.90;;;7.99;100.00;96991.91;5017274;28;20041;-56
2022/05/03 04:09:27;;;;;;;15.82;12.40;;;8.50;99.90;;;7.98;100.00;96987.56;5013082;28;20048;-56
2022/05/03 04:11:53;;;;;;;14.43;11.60;;;8.50;99.90;;;7.99;100.00;96984.03;5002215;28;20033;-56
2022/05/03 04:14:19;;;;;;;17.83;13.68;;;8.50;99.90;;;7.98;100.00;96988.41;5020871;28;20060;-56
2022/05/03 04:16:46;;;;;;;16.83;13.45;;;8.50;99.90;;;7.98;100.00;96985.78;5017392;28;20349;-59
2022/05/03 04:19:12;;;;;;;16.38;13.80;;;8.50;99.90;;;8.01;100.00;96985.69;5018980;28;20017;-59
2022/05/03 04:21:39;;;;;;;15.30;12.98;;;8.50;99.90;;;8.03;100.00;96986.50;5016613;28;20033;-56
2022/05/03 04:24:06;;;;;;;16.00;14.18;;;8.50;99.90;;;8.05;100.00;96986.44;5013762;28;20114;-56
2022/05/03 04:26:32;;;;;;;18.50;14.10;;;8.50;99.90;;;8.08;100.00;96985.50;5014325;28;20071;-59
2022/05/03 04:29:00;;;;;;;14.70;13.02;;;8.60;99.90;;;7.88;100.00;96944.13;5014144;28;20492;-56
2022/05/03 04:31:32;;;;;;;16.25;13.45;;;8.60;99.90;;;8.11;100.00;96985.38;5005482;28;20448;-57
2022/05/03 04:33:58;;;;;;;15.93;13.68;;;8.60;99.90;;;8.16;100.00;96988.72;5012554;28;20728;-56
2022/05/03 04:36:25;;;;;;;15.90;13.48;;;8.60;99.90;;;8.15;100.00;96987.88;5010564;28;20030;-56
2022/05/03 04:38:52;;;;;;;17.15;13.20;;;8.60;99.90;;;8.19;100.00;96994.72;5016421;28;20614;-59
2022/05/03 04:41:21;;;;;;;15.55;13.20;;;8.70;99.90;;;8.27;100.00;96993.59;5014559;28;20029;-56
2022/05/03 04:43:47;;;;;;;18.05;13.95;;;8.70;99.90;;;8.32;100.00;96997.78;5018820;28;20132;-56
2022/05/03 04:46:13;;;;;;;16.75;13.63;;;8.80;99.90;;;8.41;100.00;97002.72;5015788;28;20521;-56
2022/05/03 04:48:40;;;;;;;18.38;14.18;;;8.80;99.90;;;8.48;100.00;97010.44;5016775;28;20973;-56
2022/05/03 04:51:16;;;;;;;18.17;13.35;;;8.90;99.90;;;8.53;100.00;97014.63;5022466;28;20017;-56
2022/05/03 04:53:42;;;;;;;17.92;13.27;;;9.00;99.90;;;8.60;100.00;97021.38;5022958;28;20041;-56
2022/05/03 04:56:08;;;;;;;17.42;14.60;;;9.00;99.90;;;8.69;100.00;97021.97;5021411;28;20497;-55
2022/05/03 04:58:33;;;;;;;16.67;13.95;;;9.10;99.90;;;8.75;100.00;97022.59;5022846;28;20033;-56
2022/05/03 05:01:00;;;;;;;16.77;14.15;;;9.20;99.90;;;8.82;100.00;97023.25;5018432;28;20041;-56
2022/05/03 05:03:26;;;;;;;16.80;13.20;;;9.30;99.90;;;8.92;100.00;97018.53;5024082;28;20033;-56
2022/05/03 05:05:52;;;;;;;16.33;13.32;;;9.40;99.90;;;9.02;100.00;97034.81;5024147;28;20045;-56
2022/05/03 05:08:17;;;;;;;16.40;14.32;;;9.50;99.90;;;9.13;100.00;97032.66;5024071;28;20448;-56
2022/05/03 05:10:43;;;;;;;19.65;15.32;;;9.60;99.90;;;9.26;100.00;97041.81;5024520;28;20436;-58
2022/05/03 05:13:09;;;;;;;18.58;14.15;;;9.70;99.90;;;9.40;100.00;97035.16;5023438;28;20033;-56
2022/05/03 05:15:35;;;;;;;18.95;14.90;;;9.80;99.90;;;9.51;100.00;97031.22;5022506;28;20466;-56
2022/05/03 05:18:01;;;;;;;17.40;13.82;;;10.00;99.90;;;9.63;100.00;97032.50;5020386;28;20268;-56
2022/05/03 05:20:26;;;;;;;16.02;13.13;;;10.00;99.90;;;9.75;100.00;97034.66;5025614;28;20350;-56
2022/05/03 05:22:53;;;;;;;16.10;13.02;;;10.20;99.90;;;9.79;100.00;97024.84;5020384;28;20086;-57
2022/05/03 05:25:18;;;;;;;15.30;12.77;;;10.30;99.90;;;9.94;100.00;97039.19;5023318;28;20559;-56
2022/05/03 05:27:44;;;;;;;16.17;12.25;;;10.40;99.90;;;10.04;100.00;97037.03;5025258;28;20033;-55
2022/05/03 05:30:11;;;;;;;14.00;12.05;;;10.50;99.90;;;10.13;100.00;97034.03;5023277;28;20033;-56
2022/05/03 05:32:37;;;;;;;14.95;11.60;;;10.60;99.90;;;10.25;100.00;97030.91;5022553;28;20021;-56
2022/05/03 05:35:06;;;;;;;14.90;11.98;;;10.70;99.90;;;10.38;100.00;97043.59;5022736;28;20080;-56
2022/05/03 05:37:33;;;;;;;17.15;12.15;;;10.80;99.90;;;10.48;100.00;97044.91;5024481;28;20029;-56
2022/05/03 05:39:59;;;;;;;14.82;11.27;;;10.90;99.90;;;10.54;100.00;97039.38;5023999;28;20036;-56
2022/05/03 05:42:27;;;;;;;14.18;11.05;;;11.00;99.90;;;10.62;100.00;97046.97;5022404;28;20041;-57
2022/05/03 05:44:53;;;;;;;12.25;10.57;;;11.10;99.90;;;10.68;100.00;97036.16;5025608;28;20228;-56
2022/05/03 05:47:19;;;;;;;14.60;11.45;;;11.10;99.90;;;10.80;100.00;97048.81;5022738;28;20021;-56
2022/05/03 05:49:44;;;;;;;15.45;11.65;;;11.20;99.90;;;10.87;100.00;97052.91;5024589;28;20060;-58
2022/05/03 05:54:55;;;;;;;13.65;10.90;;;11.40;99.90;;;10.99;100.00;97053.28;5022412;28;20044;-56
2022/05/03 05:57:21;;;;;;;14.60;11.15;;;11.40;99.90;;;11.07;100.00;97044.13;5019450;28;20065;-57
2022/05/03 05:59:47;;;;;;;16.75;11.18;;;11.50;99.90;;;11.15;100.00;97045.56;5020177;28;20104;-57
2022/05/03 06:02:14;;;;;;;16.02;11.98;;;11.60;99.90;;;11.27;100.00;97048.50;5015262;28;20029;-57
2022/05/03 06:04:40;;;;;;;15.25;13.05;;;11.70;99.90;;;11.39;100.00;97057.63;5019243;28;20033;-57
2022/05/03 06:07:06;;;;;;;16.23;12.38;;;11.80;99.90;;;11.45;100.00;97057.34;5014217;28;20080;-57
2022/05/03 06:09:34;;;;;;;11.50;10.05;;;11.90;99.90;;;11.56;100.00;97048.09;5016493;28;20060;-58
2022/05/03 06:12:00;;;;;;;13.90;10.75;;;12.00;99.90;;;11.74;100.00;97054.28;5017675;28;20033;-57
2022/05/03 06:14:26;;;;;;;16.73;13.63;;;12.20;99.90;;;11.87;100.00;97050.13;5016919;28;21522;-58
2022/05/03 06:16:57;;;;;;;14.90;11.57;;;12.30;99.90;;;12.11;100.00;97057.84;5017259;28;20057;-57
2022/05/03 06:19:23;;;;;;;13.60;10.95;;;12.50;99.90;;;12.26;100.00;97057.09;5015862;28;20110;-57
2022/05/03 06:21:50;;;;;;;17.92;13.70;;;12.70;99.90;;;12.33;100.00;97057.66;5013947;28;20034;-58
2022/05/03 06:24:16;;;;;;;18.33;13.80;;;12.80;99.90;;;12.53;100.00;97054.88;5015166;28;20553;-58
2022/05/03 06:26:42;;;;;;;17.58;12.35;;;13.00;99.90;;;12.76;100.00;97064.28;4996033;28;20041;-58
2022/05/03 06:29:09;;;;;;;13.32;11.30;;;13.20;99.90;;;13.01;100.00;97064.78;5016323;28;20045;-57
2022/05/03 06:31:39;;;;;;;16.77;13.65;;;13.40;99.90;;;13.11;100.00;97058.09;5018470;28;20030;-58
2022/05/03 06:34:05;;;;;;;15.10;11.15;;;13.60;99.90;;;13.31;100.00;97060.56;5013237;28;20033;-57
2022/05/03 06:36:33;;;;;;;15.85;11.82;;;13.70;99.90;;;13.50;100.00;97063.09;5014022;28;20044;-58
2022/05/03 06:38:59;;;;;;;14.65;12.35;;;13.90;99.90;;;13.72;99.77;97061.91;5018925;28;21568;-57
2022/05/03 06:41:25;;;;;;;14.10;11.48;;;14.20;99.90;;;13.90;96.86;97068.00;5015034;28;20037;-58
2022/05/03 06:43:50;;;;;;;12.52;10.02;;;14.30;99.90;;;14.12;96.54;97068.53;5016382;28;20071;-58
2022/05/03 06:46:17;;;;;;;12.75;10.13;;;14.50;99.90;;;14.30;92.53;97063.09;5017987;28;20044;-58
2022/05/03 06:48:42;;;;;;;12.65;9.90;;;14.70;99.90;;;14.42;85.96;97073.00;5017027;28;20033;-58
2022/05/03 06:51:08;;;;;;;12.35;9.23;;;14.90;99.90;;;14.63;88.36;97070.09;5018468;28;20037;-58
2022/05/03 06:53:35;;;;;;;10.25;8.70;;;15.00;99.90;;;14.75;83.77;97072.03;5012816;28;20037;-58
2022/05/03 06:56:01;;;;;;;10.68;8.40;;;15.20;99.90;;;14.91;84.07;97060.47;5012845;28;20072;-58
2022/05/03 06:58:27;;;;;;;11.43;8.60;;;15.30;99.90;;;15.02;82.41;97066.88;5013045;28;20037;-58
2022/05/03 07:00:52;;;;;;;11.35;8.63;;;15.50;99.90;;;15.18;81.14;97068.59;5011807;28;20366;-58
2022/05/03 07:03:18;;;;;;;12.13;9.07;;;15.60;99.90;;;15.24;79.03;97060.25;5016929;28;20354;-59
2022/05/03 07:05:44;;;;;;;10.65;7.90;;;15.70;99.90;;;15.41;79.50;97064.53;5015529;28;20327;-58
2022/05/03 07:08:10;;;;;;;15.00;10.60;;;15.80;99.90;;;15.51;79.49;97068.31;5016056;28;20512;-58
2022/05/03 07:10:37;;;;;;;10.05;8.95;;;15.90;99.90;;;15.64;78.27;97069.25;5029436;22;20041;-51
2022/05/03 07:13:04;;;;;;;12.15;7.75;;;16.00;99.90;;;15.80;77.05;97069.19;5013961;28;20031;-47
2022/05/03 07:15:30;;;;;;;11.68;9.63;;;16.20;99.90;;;15.96;76.14;97063.75;5010909;28;20033;-44
2022/05/03 07:23:26;;;;;;;9.50;7.40;;;16.50;99.90;;;16.22;69.48;97063.84;5013662;28;20524;-49
2022/05/03 07:25:53;;;;;;;10.82;8.32;;;16.60;99.90;;;16.35;71.72;97079.91;5013271;28;20108;-52
2022/05/03 07:28:19;;;;;;;9.55;7.25;;;16.70;99.90;;;16.44;70.79;97081.06;5014432;28;20056;-48
2022/05/03 07:30:45;;;;;;;9.15;7.15;;;16.70;99.90;;;16.52;68.54;97084.09;5014397;28;20176;-49
2022/05/03 07:33:11;;;;;;;7.43;5.43;;;16.80;99.90;;;16.63;66.04;97083.38;5015748;28;20042;-51
2022/05/03 07:35:37;;;;;;;8.02;5.90;;;16.90;99.90;;;16.68;65.74;97083.94;5013723;28;20024;-49
2022/05/03 07:38:02;;;;;;;9.80;8.32;;;17.00;99.90;;;16.59;66.91;97086.25;5011795;28;20087;-52
2022/05/03 07:40:28;;;;;;;8.93;6.57;;;17.00;99.90;;;16.78;67.79;97088.56;5013790;28;20056;-50
2022/05/03 07:42:54;;;;;;;10.88;8.25;;;17.20;99.90;;;16.95;67.46;97095.41;5000341;28;20033;-50
2022/05/03 07:45:20;;;;;;;14.68;8.43;;;17.30;99.90;;;17.09;68.50;97098.97;5013656;28;20061;-50
2022/05/03 07:47:46;;;;;;;12.52;8.13;;;17.40;99.90;;;17.25;67.03;97093.47;5008512;28;20033;-50
2022/05/03 07:50:12;;;;;;;10.38;6.50;;;17.60;99.90;;;17.48;64.17;97103.38;5015858;28;20053;-49
2022/05/03 07:52:41;;;;;;;10.52;6.35;;;17.80;99.90;;;17.55;62.99;97098.47;5013459;28;20084;-52
2022/05/03 07:55:10;;;;;;;8.18;6.68;;;17.90;99.90;;;17.67;63.87;97102.91;5016309;28;20034;-52
2022/05/03 07:57:36;;;;;;;9.52;6.40;;;18.00;99.90;;;17.75;61.59;97105.91;5016055;28;20021;-48
2022/05/03 08:00:05;;;;;;;9.75;6.45;;;18.10;99.90;;;17.73;63.24;97101.66;5013911;28;20409;-52
2022/05/03 08:02:30;;;;;;;7.57;6.25;;;18.10;99.90;;;17.65;63.13;97106.66;5016096;28;20080;-48
2022/05/03 08:04:56;;;;;;;12.57;6.95;;;18.10;99.90;;;17.62;61.23;97106.88;5011230;28;20021;-49
2022/05/03 08:07:22;;;;;;;9.35;7.10;;;18.10;99.90;;;17.77;61.77;97102.31;4997634;28;20025;-51
2022/05/03 08:09:52;;;;;;;6.93;5.80;;;18.10;99.90;;;17.83;62.48;97113.38;5006238;28;21990;-52
2022/05/03 08:12:18;;;;;;;7.97;6.32;;;18.20;99.90;;;17.80;61.78;97107.41;5010812;28;21110;-50
2022/05/03 08:14:44;;;;;;;7.20;5.30;;;18.20;99.90;;;17.80;61.67;97110.06;5014091;28;20112;-49
2022/05/03 08:17:10;;;;;;;8.82;5.97;;;18.20;99.90;;;17.72;60.51;97106.13;5011446;28;20062;-49
2022/05/03 08:19:36;;;;;;;5.97;4.80;;;18.10;99.90;;;17.69;60.53;97117.03;5012842;28;20116;-51
2022/05/03 08:22:02;;;;;;;7.43;5.45;;;18.00;99.90;;;17.58;61.38;97111.56;5014235;28;20033;-55
2022/05/03 08:24:28;;;;;;;6.53;4.85;;;17.90;99.90;;;17.49;63.39;97109.56;5012633;28;20757;-49
2022/05/03 08:26:54;;;;;;;7.95;5.90;;;17.80;99.90;;;17.35;63.97;97113.16;5013804;28;20338;-50
2022/05/03 08:29:20;;;;;;;7.97;6.00;;;17.60;99.90;;;17.20;62.76;97115.09;4998637;28;20132;-50
2022/05/03 08:31:46;;;;;;;6.80;5.22;;;17.40;99.90;;;17.13;63.79;97113.78;5014259;28;20029;-49
2022/05/03 08:34:13;;;;;;;8.70;5.68;;;17.40;99.90;;;17.05;64.13;97116.09;5014663;28;20284;-48
2022/05/03 08:36:39;;;;;;;8.15;5.63;;;17.30;99.90;;;17.03;64.11;97115.38;5014874;28;20076;-50
2022/05/03 08:42:02;;;;;;;5.72;4.72;;;17.40;99.90;;;17.18;63.89;97115.19;5016902;28;20100;-50
2022/05/03 08:44:29;;;;;;;8.18;5.20;;;17.40;99.90;;;17.25;62.14;97117.44;5015942;28;20076;-53
2022/05/03 08:46:57;;;;;;;8.50;5.13;;;17.60;99.90;;;17.29;60.71;97114.44;5016500;28;21280;-50
2022/05/03 08:49:25;;;;;;;7.45;5.22;;;17.60;99.90;;;17.33;59.02;97117.75;5011393;28;20471;-51
2022/05/03 08:51:53;;;;;;;7.28;5.20;;;17.70;99.90;;;17.31;60.41;97112.53;4987851;28;20188;-52
2022/05/03 08:54:20;;;;;;;8.73;5.18;;;17.60;99.90;;;17.32;62.08;97108.06;5015899;28;20358;-50
2022/05/03 08:56:47;;;;;;;9.98;4.70;;;17.60;99.90;;;17.37;61.93;97111.25;5014866;28;20022;-50
2022/05/03 08:59:13;;;;;;;5.10;3.97;;;17.60;99.90;;;17.52;61.51;97114.69;5015436;28;20045;-51
2022/05/03 09:01:40;;;;;;;9.18;5.05;;;17.70;99.90;;;17.66;61.88;97116.38;5016709;28;20030;-52
2022/05/03 09:04:06;;;;;;;7.13;4.25;;;17.90;99.90;;;17.96;60.47;97118.72;5017976;28;20029;-50
2022/05/03 09:06:47;;;;;;;7.38;5.20;;;18.20;99.90;;;18.28;57.75;97124.41;5016951;28;20497;-51
2022/05/03 09:09:15;;;;;;;9.02;5.60;;;18.60;99.90;;;18.54;55.81;97120.78;5015047;28;20041;-51
2022/05/03 09:11:50;;;;;;;5.55;4.60;;;18.90;99.90;;;18.93;54.77;97124.16;5016735;28;20038;-49
2022/05/03 09:14:38;;;;;;;9.93;5.05;;;19.30;99.90;;;19.16;53.63;97119.75;5013134;28;20056;-49
2022/05/03 09:17:05;;;;;;;8.80;5.20;;;19.60;99.90;;;19.31;53.00;97123.94;5015572;28;20025;-49
2022/05/03 09:19:31;;;;;;;5.45;4.65;;;19.70;99.40;;;19.60;52.03;97116.31;5017304;28;20048;-49
2022/05/03 09:24:53;;;;;;;4.55;3.97;;;20.10;98.60;;;19.88;49.25;97119.53;5015934;28;20129;-50
2022/05/03 09:27:20;;;;;;;4.03;3.13;;;20.40;96.80;;;20.20;50.74;97108.94;5013694;28;20069;-48
2022/05/03 09:30:09;;;;;;;4.80;3.72;;;20.60;97.40;;;19.87;46.83;97119.69;5011860;28;20043;-50
2022/05/03 09:32:43;;;;;;;5.68;3.45;;;20.60;94.20;;;19.91;46.52;97113.94;4991615;28;20527;-50
2022/05/03 09:35:32;;;;;;;4.57;3.03;;;20.50;93.40;;;19.87;47.57;97112.50;5011526;28;20034;-48
2022/05/03 09:37:59;;;;;;;3.90;3.28;;;20.40;94.30;;;19.54;49.57;97108.81;5019241;28;20087;-50
2022/05/03 09:40:26;;;;;;;5.47;3.15;;;20.20;94.80;;;19.72;51.22;97109.19;5020777;28;20120;-50
2022/05/03 09:42:56;;;;;;;3.40;2.50;;;20.10;95.70;;;19.82;50.09;97107.50;5014588;28;20448;-50
2022/05/03 09:45:26;;;;;;;4.20;2.38;;;20.20;95.60;;;19.94;47.52;97102.16;5015602;28;20025;-49
2022/05/03 09:47:56;;;;;;;3.45;2.40;;;20.30;94.70;;;20.09;46.93;97108.09;5017347;28;20084;-47
2022/05/03 09:50:48;;;;;;;3.70;2.50;;;20.40;93.80;;;20.01;47.24;97106.06;5011794;28;20031;-48
2022/05/03 09:53:19;;;;;;;2.05;1.88;;;20.40;93.00;;;20.09;46.16;97108.94;5014247;28;20128;-48
2022/05/03 09:55:48;;;;;;;2.00;1.80;;;20.30;92.70;;;20.01;44.38;97101.53;5018020;28;20056;-51
2022/05/03 09:58:17;;;;;;;4.75;2.38;;;20.30;91.10;;;19.64;44.42;97099.06;5020401;28;20229;-50
2022/05/03 10:00:46;;;;;;;2.45;2.10;;;20.20;89.90;;;19.67;44.75;97091.75;5017784;28;20028;-49
2022/05/03 10:03:13;;;;;;;3.42;2.25;;;20.10;90.80;;;19.49;45.19;97100.28;5017166;28;20156;-48
2022/05/03 10:05:45;;;;;;;4.05;2.65;;;19.90;90.60;;;19.39;46.69;97099.28;5013029;28;20504;-50
2022/05/03 10:08:11;;;;;;;3.58;3.08;;;19.80;91.60;;;19.25;46.68;97097.66;5019887;28;21800;-48
2022/05/03 10:10:43;;;;;;;4.88;3.22;;;19.70;91.40;;;19.23;46.61;97099.59;5012350;28;20112;-51
2022/05/03 10:13:11;;;;;;;3.97;3.22;;;19.70;91.40;;;19.36;47.28;97088.81;4997217;28;20041;-51
2022/05/03 10:21:28;;;;;;;2.72;2.00;;;19.60;90.30;;;19.17;48.87;97062.66;4998625;28;20380;-51
2022/05/03 10:24:06;;;;;;;5.43;2.60;;;19.60;91.80;;;19.33;48.31;97076.56;5015719;28;20037;-48
2022/05/03 10:27:03;;;;;;;3.63;2.95;;;19.60;92.90;;;19.31;47.93;97075.81;5000165;28;20079;-51
2022/05/03 10:29:35;;;;;;;3.70;2.90;;;19.60;92.20;;;19.12;48.18;97073.69;5018676;28;20044;-48
2022/05/03 10:32:06;;;;;;;3.97;2.80;;;19.50;91.50;;;19.18;48.63;97075.88;5015380;28;20048;-50
2022/05/03 10:34:51;;;;;;;2.72;2.40;;;19.50;92.30;;;19.27;49.27;97069.00;5017913;28;20073;-51
2022/05/03 10:37:46;;;;;;;4.05;3.03;;;19.50;92.90;;;19.32;49.13;97071.31;5013460;28;20037;-51
2022/05/03 10:40:14;;;;;;;3.80;2.58;;;19.60;92.90;;;19.32;48.47;97068.63;5016434;28;20069;-51
2022/05/03 10:42:41;;;;;;;3.10;2.30;;;19.60;92.30;;;19.34;48.82;97064.88;5020166;28;20529;-51
2022/05/03 10:45:12;;;;;;;3.03;2.60;;;19.60;92.50;;;19.37;45.72;97053.94;5015590;28;20033;-51
2022/05/03 10:47:54;;;;;;;3.75;2.60;;;19.60;91.00;;;19.37;47.23;97061.13;4996275;28;20112;-51
2022/05/03 10:50:30;;;;;;;5.72;3.20;;;19.60;91.30;;;19.20;46.43;97065.09;5016555;28;20037;-49
2022/05/03 10:52:56;;;;;;;3.55;2.80;;;19.60;90.70;;;19.07;47.43;97060.69;5015288;28;20111;-52
2022/05/03 10:55:23;;;;;;;2.90;2.17;;;19.50;90.90;;;19.18;49.23;97059.84;5018898;28;20033;-47
2022/05/03 10:58:27;;;;;;;3.42;2.97;;;19.50;92.20;;;19.12;47.22;97065.69;5018000;28;20075;-52
2022/05/03 11:01:20;;;;;;;3.95;3.38;;;19.50;91.20;;;19.02;47.63;97060.22;5016614;28;20033;-50
2022/05/03 11:03:48;;;;;;;7.75;3.58;;;19.40;91.00;;;19.05;48.27;97059.94;5012478;28;20039;-48